createdAt,value
2022-10-31T00:01:38.712Z,101219.28
2022-10-31T00:04:06.814Z,101224.25
2022-10-31T00:06:33.886Z,101219.63
2022-10-31T00:09:04.216Z,101225.91
2022-10-31T00:11:32.045Z,101225.09
2022-10-31T00:14:00.208Z,101224.81
2022-10-31T00:16:28.835Z,101223.22
2022-10-31T00:19:00.659Z,101216.44
2022-10-31T00:21:29.117Z,101230.00
2022-10-31T00:23:56.182Z,101228.59
2022-10-31T00:26:23.238Z,101235.88
2022-10-31T00:28:50.276Z,101234.13
2022-10-31T00:31:17.252Z,101238.56
2022-10-31T00:33:44.448Z,101238.00
2022-10-31T00:36:18.965Z,101234.19
2022-10-31T00:38:50.363Z,101239.25
2022-10-31T00:41:19.142Z,101239.28
2022-10-31T00:43:46.473Z,101241.84
2022-10-31T00:46:14.731Z,101240.97
2022-10-31T00:48:42.379Z,101243.59
2022-10-31T00:51:09.922Z,101242.59
2022-10-31T00:53:36.912Z,101245.00
2022-10-31T00:56:07.482Z,101244.94
2022-10-31T00:58:34.564Z,101244.81
2022-10-31T01:01:01.719Z,101250.81
2022-10-31T01:03:33.417Z,101241.72
2022-10-31T01:06:09.696Z,101243.09
2022-10-31T01:08:38.725Z,101246.41
2022-10-31T01:11:20.898Z,101246.63
2022-10-31T01:13:52.002Z,101253.53
2022-10-31T01:16:23.470Z,101256.59
2022-10-31T01:18:51.131Z,101261.31
2022-10-31T01:21:25.918Z,101259.31
2022-10-31T01:23:56.149Z,101261.31
2022-10-31T01:26:32.756Z,101266.91
2022-10-31T01:29:06.996Z,101268.66
2022-10-31T01:31:39.509Z,101267.44
2022-10-31T01:34:07.665Z,101264.03
2022-10-31T01:36:40.681Z,101266.06
2022-10-31T01:39:16.086Z,101271.97
2022-10-31T01:41:48.476Z,101273.97
2022-10-31T01:44:15.266Z,101269.38
2022-10-31T01:47:05.080Z,101271.06
2022-10-31T01:49:44.754Z,101273.28
2022-10-31T01:52:31.680Z,101269.63
2022-10-31T01:55:10.994Z,101274.63
2022-10-31T01:57:41.502Z,101272.47
2022-10-31T02:00:12.067Z,101272.06
2022-10-31T02:02:39.432Z,101267.00
2022-10-31T02:05:13.351Z,101271.00
2022-10-31T02:08:09.760Z,101275.91
2022-10-31T02:10:38.519Z,101279.59
2022-10-31T02:13:08.972Z,101276.41
2022-10-31T02:15:39.232Z,101279.47
2022-10-31T02:18:07.839Z,101272.06
2022-10-31T02:21:04.997Z,101281.41
2022-10-31T02:24:43.747Z,101279.97
2022-10-31T02:27:50.499Z,101279.91
2022-10-31T02:30:25.705Z,101284.94
2022-10-31T02:33:15.757Z,101271.03
2022-10-31T02:36:02.210Z,101268.13
2022-10-31T02:38:57.680Z,101272.69
2022-10-31T02:41:56.892Z,101272.59
2022-10-31T02:44:56.237Z,101267.69
2022-10-31T02:47:30.628Z,101278.41
2022-10-31T02:50:23.073Z,101273.72
2022-10-31T02:52:54.076Z,101277.38
2022-10-31T02:55:23.903Z,101277.22
2022-10-31T02:58:15.480Z,101277.94
2022-10-31T03:02:01.611Z,101277.31
2022-10-31T03:05:27.824Z,101280.00
2022-10-31T03:08:36.735Z,101289.09
2022-10-31T03:11:08.596Z,101283.63
2022-10-31T03:13:57.227Z,101292.47
2022-10-31T03:16:53.168Z,101289.22
2022-10-31T03:19:41.051Z,101288.47
2022-10-31T03:22:16.736Z,101289.19
2022-10-31T03:24:45.858Z,101288.78
2022-10-31T03:27:17.235Z,101292.63
2022-10-31T03:29:45.871Z,101297.66
2022-10-31T03:32:24.617Z,101305.09
2022-10-31T03:34:54.213Z,101311.44
2022-10-31T03:37:22.999Z,101311.44
2022-10-31T03:39:51.079Z,101314.06
2022-10-31T03:42:29.826Z,101313.88
2022-10-31T03:45:18.554Z,101308.66
2022-10-31T03:47:45.672Z,101321.72
2022-10-31T03:50:16.070Z,101326.00
2022-10-31T03:52:58.591Z,101331.06
2022-10-31T03:55:35.924Z,101332.06
2022-10-31T03:58:38.245Z,101329.78
2022-10-31T04:01:12.246Z,101331.81
2022-10-31T04:03:40.022Z,101327.94
2022-10-31T04:06:15.671Z,101343.91
2022-10-31T04:09:02.057Z,101341.31
2022-10-31T04:11:37.924Z,101344.63
2022-10-31T04:14:07.273Z,101348.19
2022-10-31T04:16:34.595Z,101353.63
2022-10-31T04:19:01.575Z,101346.81
2022-10-31T04:21:30.257Z,101340.81
2022-10-31T04:23:58.667Z,101340.72
2022-10-31T04:26:25.999Z,101344.41
2022-10-31T04:28:53.055Z,101353.38
2022-10-31T04:31:20.820Z,101345.34
2022-10-31T04:33:47.837Z,101347.03
2022-10-31T04:36:14.916Z,101354.13
2022-10-31T04:38:41.889Z,101349.53
2022-10-31T04:41:08.822Z,101355.66
2022-10-31T04:43:35.846Z,101350.97
2022-10-31T04:46:03.168Z,101356.63
2022-10-31T04:48:30.315Z,101354.97
2022-10-31T04:51:02.443Z,101355.78
2022-10-31T04:53:30.605Z,101357.31
2022-10-31T04:56:02.892Z,101355.97
2022-10-31T04:58:30.179Z,101352.25
2022-10-31T05:00:58.202Z,101351.31
2022-10-31T05:03:25.285Z,101356.06
2022-10-31T05:05:52.331Z,101355.88
2022-10-31T05:08:19.293Z,101361.69
2022-10-31T05:10:46.262Z,101359.91
2022-10-31T05:13:13.417Z,101358.91
2022-10-31T05:15:40.448Z,101359.75
2022-10-31T05:18:07.657Z,101360.19
2022-10-31T05:20:34.849Z,101360.28
2022-10-31T05:23:01.961Z,101356.53
2022-10-31T05:25:30.178Z,101364.38
2022-10-31T05:27:58.692Z,101372.31
2022-10-31T05:30:30.810Z,101362.38
2022-10-31T05:32:58.529Z,101373.16
2022-10-31T05:35:33.940Z,101365.13
2022-10-31T05:38:01.084Z,101373.81
2022-10-31T05:40:29.520Z,101374.84
2022-10-31T05:43:00.990Z,101379.53
2022-10-31T05:45:28.198Z,101379.34
2022-10-31T05:48:01.936Z,101380.66
2022-10-31T05:50:32.188Z,101380.44
2022-10-31T05:53:06.318Z,101376.91
2022-10-31T05:55:34.064Z,101381.94
2022-10-31T05:58:01.871Z,101381.28
2022-10-31T06:00:32.802Z,101385.31
2022-10-31T06:05:36.756Z,101388.44
2022-10-31T06:08:04.451Z,101388.44
2022-10-31T06:10:31.712Z,101384.28
2022-10-31T06:12:58.777Z,101383.13
2022-10-31T06:15:25.837Z,101391.81
2022-10-31T06:18:19.386Z,101399.47
2022-10-31T06:20:46.416Z,101399.09
2022-10-31T06:23:13.469Z,101408.56
2022-10-31T06:25:40.477Z,101405.81
2022-10-31T06:28:07.678Z,101408.47
2022-10-31T06:30:34.690Z,101406.22
2022-10-31T06:33:10.319Z,101411.94
2022-10-31T06:35:37.299Z,101416.88
2022-10-31T06:38:04.813Z,101416.19
2022-10-31T06:40:32.502Z,101418.91
2022-10-31T06:43:02.058Z,101418.31
2022-10-31T06:45:29.512Z,101422.00
2022-10-31T06:50:45.173Z,101420.84
2022-10-31T06:53:12.500Z,101425.41
2022-10-31T06:55:39.804Z,101431.34
2022-10-31T06:58:07.385Z,101430.66
2022-10-31T07:00:34.593Z,101430.44
2022-10-31T07:03:11.417Z,101432.56
2022-10-31T07:05:39.056Z,101430.81
2022-10-31T07:08:10.328Z,101432.50
2022-10-31T07:10:41.007Z,101444.75
2022-10-31T07:13:15.073Z,101446.44
2022-10-31T07:15:45.384Z,101447.63
2022-10-31T07:18:13.571Z,101446.16
2022-10-31T07:20:40.864Z,101452.41
2022-10-31T07:23:12.563Z,101455.97
2022-10-31T07:25:40.917Z,101461.19
2022-10-31T07:28:08.399Z,101457.53
2022-10-31T07:30:35.607Z,101457.16
2022-10-31T07:33:02.675Z,101447.84
2022-10-31T07:35:30.855Z,101455.97
2022-10-31T07:37:59.313Z,101447.94
2022-10-31T07:40:26.849Z,101450.97
2022-10-31T07:42:54.843Z,101453.88
2022-10-31T07:45:22.236Z,101462.38
2022-10-31T07:47:56.080Z,101460.88
2022-10-31T07:50:29.872Z,101464.34
2022-10-31T07:53:16.394Z,101466.50
2022-10-31T07:55:44.479Z,101472.47
2022-10-31T07:58:15.943Z,101470.44
2022-10-31T08:00:46.284Z,101478.56
2022-10-31T08:03:17.945Z,101482.22
2022-10-31T08:05:48.642Z,101482.56
2022-10-31T08:08:16.473Z,101479.69
2022-10-31T08:10:44.051Z,101494.53
2022-10-31T08:13:14.268Z,101487.13
2022-10-31T08:15:43.022Z,101493.31
2022-10-31T08:18:15.085Z,101483.28
2022-10-31T08:20:44.173Z,101490.34
2022-10-31T08:23:13.281Z,101489.66
2022-10-31T08:25:41.167Z,101494.28
2022-10-31T08:28:13.428Z,101492.69
2022-10-31T08:30:41.698Z,101497.66
2022-10-31T08:33:18.613Z,101487.38
2022-10-31T08:35:45.999Z,101490.88
2022-10-31T08:38:15.135Z,101490.50
2022-10-31T08:40:42.692Z,101488.84
2022-10-31T08:43:16.162Z,101495.06
2022-10-31T08:45:45.658Z,101502.47
2022-10-31T08:48:16.618Z,101499.38
2022-10-31T08:50:46.097Z,101501.50
2022-10-31T08:53:20.229Z,101498.53
2022-10-31T08:55:48.135Z,101504.41
2022-10-31T08:58:19.567Z,101496.53
2022-10-31T09:00:50.175Z,101498.53
2022-10-31T09:03:27.264Z,101494.13
2022-10-31T09:06:04.916Z,101487.47
2022-10-31T09:08:33.215Z,101489.38
2022-10-31T09:11:00.791Z,101494.53
2022-10-31T09:13:28.363Z,101499.56
2022-10-31T09:15:58.822Z,101503.00
2022-10-31T09:18:28.837Z,101501.81
2022-10-31T09:20:59.469Z,101502.44
2022-10-31T09:23:26.679Z,101502.28
2022-10-31T09:25:54.778Z,101508.19
2022-10-31T09:28:24.652Z,101510.91
2022-10-31T09:30:54.895Z,101505.47
2022-10-31T09:33:22.390Z,101505.16
2022-10-31T09:35:49.745Z,101512.72
2022-10-31T09:38:21.180Z,101517.66
2022-10-31T09:41:56.166Z,101524.25
2022-10-31T09:44:51.534Z,101517.66
2022-10-31T09:47:44.563Z,101522.19
2022-10-31T09:50:38.886Z,101518.59
2022-10-31T09:53:27.454Z,101525.97
2022-10-31T09:55:56.003Z,101528.44
2022-10-31T09:58:32.110Z,101527.81
2022-10-31T10:01:04.044Z,101530.56
2022-10-31T10:03:47.823Z,101532.84
2022-10-31T10:06:25.791Z,101531.16
2022-10-31T10:08:52.763Z,101531.06
2022-10-31T10:11:59.743Z,101528.59
2022-10-31T10:15:31.720Z,101528.88
2022-10-31T10:18:28.599Z,101519.56
2022-10-31T10:21:16.903Z,101513.50
2022-10-31T10:24:45.409Z,101504.72
2022-10-31T10:27:32.328Z,101504.50
2022-10-31T10:30:26.551Z,101505.22
2022-10-31T10:33:09.175Z,101505.41
2022-10-31T10:35:48.778Z,101508.22
2022-10-31T10:38:51.289Z,101507.97
2022-10-31T10:41:40.171Z,101509.06
2022-10-31T10:44:18.446Z,101503.53
2022-10-31T10:47:18.951Z,101500.22
2022-10-31T10:49:56.781Z,101493.28
2022-10-31T10:53:02.112Z,101485.50
2022-10-31T10:56:18.952Z,101486.88
2022-10-31T10:58:46.750Z,101486.34
2022-10-31T11:01:24.206Z,101492.16
2022-10-31T11:04:12.432Z,101495.94
2022-10-31T11:06:40.219Z,101490.75
2022-10-31T11:09:14.037Z,101493.13
2022-10-31T11:11:41.273Z,101492.59
2022-10-31T11:14:17.149Z,101492.28
2022-10-31T11:16:56.662Z,101493.50
2022-10-31T11:19:28.436Z,101491.53
2022-10-31T11:22:18.810Z,101490.66
2022-10-31T11:24:49.767Z,101485.09
2022-10-31T11:27:25.074Z,101476.81
2022-10-31T11:29:56.791Z,101472.28
2022-10-31T11:32:30.377Z,101476.94
2022-10-31T11:35:13.548Z,101469.78
2022-10-31T11:37:46.620Z,101476.28
2022-10-31T11:40:27.463Z,101468.22
2022-10-31T11:43:00.246Z,101468.81
2022-10-31T11:45:51.535Z,101469.19
2022-10-31T11:48:25.556Z,101475.47
2022-10-31T11:51:02.033Z,101473.38
2022-10-31T11:53:33.943Z,101470.75
2022-10-31T11:56:29.544Z,101471.50
2022-10-31T11:59:18.602Z,101471.63
2022-10-31T12:01:58.761Z,101465.59
2022-10-31T12:04:41.562Z,101469.38
2022-10-31T12:07:19.758Z,101473.00
2022-10-31T12:09:46.913Z,101464.38
2022-10-31T12:12:30.451Z,101468.69
2022-10-31T12:15:36.789Z,101462.69
2022-10-31T12:18:52.472Z,101465.31
2022-10-31T12:21:52.901Z,101467.69
2022-10-31T12:24:56.961Z,101465.03
2022-10-31T12:27:35.594Z,101459.38
2022-10-31T12:30:28.161Z,101454.91
2022-10-31T12:33:22.758Z,101452.63
2022-10-31T12:36:42.306Z,101448.38
2022-10-31T12:39:29.890Z,101450.13
2022-10-31T12:42:56.414Z,101441.31
2022-10-31T12:45:41.646Z,101440.22
2022-10-31T12:49:23.743Z,101437.91
2022-10-31T12:52:29.309Z,101432.16
2022-10-31T12:55:32.201Z,101435.44
2022-10-31T12:58:41.932Z,101426.63
2022-10-31T13:01:38.603Z,101432.97
2022-10-31T13:04:41.632Z,101432.69
2022-10-31T13:07:39.927Z,101428.34
2022-10-31T13:10:43.871Z,101428.13
2022-10-31T13:13:39.179Z,101433.34
2022-10-31T13:16:52.880Z,101432.78
2022-10-31T13:19:38.020Z,101421.91
2022-10-31T13:22:38.374Z,101425.25
2022-10-31T13:25:50.646Z,101421.13
2022-10-31T13:29:21.544Z,101414.69
2022-10-31T13:31:55.022Z,101416.34
2022-10-31T13:34:48.865Z,101419.31
2022-10-31T13:37:45.293Z,101419.88
2022-10-31T13:40:58.400Z,101417.53
2022-10-31T13:44:19.016Z,101417.59
2022-10-31T13:46:46.989Z,101412.81
2022-10-31T13:49:35.629Z,101405.31
2022-10-31T13:52:30.889Z,101406.88
2022-10-31T13:55:24.956Z,101396.47
2022-10-31T13:57:54.835Z,101399.84
2022-10-31T14:00:22.188Z,101404.03
2022-10-31T14:03:01.083Z,101400.78
2022-10-31T14:05:36.221Z,101398.50
2022-10-31T14:08:23.231Z,101397.84
2022-10-31T14:11:20.538Z,101383.19
2022-10-31T14:13:48.153Z,101388.78
2022-10-31T14:16:33.328Z,101394.38
2022-10-31T14:19:08.529Z,101392.19
2022-10-31T14:21:43.804Z,101390.00
2022-10-31T14:24:26.345Z,101382.91
2022-10-31T14:27:27.139Z,101392.13
2022-10-31T14:29:54.337Z,101387.28
2022-10-31T14:32:27.654Z,101382.28
2022-10-31T14:34:58.839Z,101382.47
2022-10-31T14:38:13.793Z,101379.00
2022-10-31T14:41:03.372Z,101375.22
2022-10-31T14:44:27.228Z,101380.06
2022-10-31T14:47:45.261Z,101384.84
2022-10-31T14:50:36.029Z,101374.47
2022-10-31T14:53:08.162Z,101371.88
2022-10-31T14:55:42.614Z,101372.44
2022-10-31T14:58:09.822Z,101370.53
2022-10-31T15:00:37.382Z,101366.97
2022-10-31T15:03:22.415Z,101369.50
2022-10-31T15:06:02.338Z,101366.72
2022-10-31T15:08:48.508Z,101360.91
2022-10-31T15:11:37.577Z,101362.59
2022-10-31T15:14:30.851Z,101364.78
2022-10-31T15:17:04.393Z,101370.78
2022-10-31T15:19:35.178Z,101366.19
2022-10-31T15:22:02.363Z,101367.13
2022-10-31T15:24:38.259Z,101367.41
2022-10-31T15:27:14.909Z,101364.88
2022-10-31T15:30:00.355Z,101361.09
2022-10-31T15:32:30.219Z,101360.00
2022-10-31T15:34:58.230Z,101365.25
2022-10-31T15:37:27.808Z,101358.25
2022-10-31T15:40:00.983Z,101356.44
2022-10-31T15:42:41.668Z,101360.31
2022-10-31T15:45:13.976Z,101356.66
2022-10-31T15:47:54.152Z,101352.47
2022-10-31T15:50:50.445Z,101358.66
2022-10-31T15:53:34.512Z,101353.84
2022-10-31T15:56:08.411Z,101352.81
2022-10-31T15:58:48.119Z,101354.50
2022-10-31T16:01:33.924Z,101352.56
2022-10-31T16:04:14.545Z,101353.78
2022-10-31T16:06:41.514Z,101359.44
2022-10-31T16:09:24.983Z,101356.94
2022-10-31T16:11:52.302Z,101356.28
2022-10-31T16:14:26.818Z,101347.31
2022-10-31T16:16:58.542Z,101352.50
2022-10-31T16:19:37.247Z,101356.06
2022-10-31T16:22:10.954Z,101360.94
2022-10-31T16:25:12.719Z,101366.47
2022-10-31T16:27:41.427Z,101362.03
2022-10-31T16:30:47.900Z,101365.63
2022-10-31T16:33:35.072Z,101369.34
2022-10-31T16:36:34.410Z,101372.47
2022-10-31T16:39:03.412Z,101371.78
2022-10-31T16:41:30.520Z,101372.69
2022-10-31T16:43:57.634Z,101375.13
2022-10-31T16:46:27.873Z,101372.13
2022-10-31T16:48:55.462Z,101372.81
2022-10-31T16:51:22.427Z,101362.75
2022-10-31T16:53:53.223Z,101366.06
2022-10-31T16:56:30.276Z,101369.31
2022-10-31T16:58:57.772Z,101362.47
2022-10-31T17:01:24.891Z,101362.38
2022-10-31T17:03:52.013Z,101363.72
2022-10-31T17:06:18.927Z,101358.09
2022-10-31T17:08:45.960Z,101362.50
2022-10-31T17:11:22.215Z,101362.38
2022-10-31T17:13:49.262Z,101373.66
2022-10-31T17:16:16.311Z,101361.47
2022-10-31T17:18:47.471Z,101367.19
2022-10-31T17:21:23.661Z,101364.13
2022-10-31T17:23:51.501Z,101356.09
2022-10-31T17:26:19.531Z,101350.97
2022-10-31T17:28:46.838Z,101353.84
2022-10-31T17:31:36.507Z,101350.50
2022-10-31T17:34:05.799Z,101355.75
2022-10-31T17:36:34.602Z,101351.22
2022-10-31T17:39:03.181Z,101348.22
2022-10-31T17:41:50.242Z,101350.00
2022-10-31T17:44:17.249Z,101353.59
2022-10-31T17:46:55.657Z,101340.56
2022-10-31T17:49:22.728Z,101342.63
2022-10-31T17:51:49.691Z,101344.03
2022-10-31T17:54:18.928Z,101347.38
2022-10-31T17:56:46.065Z,101336.25
2022-10-31T17:59:13.181Z,101342.47
2022-10-31T18:01:43.019Z,101335.19
2022-10-31T18:04:10.397Z,101334.97
2022-10-31T18:06:37.760Z,101335.41
2022-10-31T18:09:06.001Z,101333.50
2022-10-31T18:11:33.466Z,101332.31
2022-10-31T18:14:01.303Z,101336.34
2022-10-31T18:16:28.530Z,101334.44
2022-10-31T18:19:05.917Z,101341.03
2022-10-31T18:21:33.279Z,101336.84
2022-10-31T18:24:02.874Z,101335.63
2022-10-31T18:26:30.046Z,101329.94
2022-10-31T18:28:57.011Z,101323.22
2022-10-31T18:31:24.764Z,101330.53
2022-10-31T18:33:56.748Z,101331.00
2022-10-31T18:36:25.038Z,101337.09
2022-10-31T18:38:52.375Z,101334.94
2022-10-31T18:41:19.765Z,101327.53
2022-10-31T18:43:47.090Z,101320.59
2022-10-31T18:46:18.040Z,101312.44
2022-10-31T18:48:48.623Z,101307.19
2022-10-31T18:51:18.293Z,101310.38
2022-10-31T18:54:01.093Z,101303.34
2022-10-31T18:56:31.739Z,101309.53
2022-10-31T18:59:02.503Z,101305.81
2022-10-31T19:01:30.781Z,101300.00
2022-10-31T19:03:59.739Z,101293.66
2022-10-31T19:06:28.339Z,101293.31
2022-10-31T19:09:06.716Z,101300.97
2022-10-31T19:11:34.670Z,101297.63
2022-10-31T19:14:02.392Z,101288.78
2022-10-31T19:16:32.382Z,101295.53
2022-10-31T19:19:00.245Z,101285.88
2022-10-31T19:21:27.670Z,101290.69
2022-10-31T19:23:56.511Z,101290.69
2022-10-31T19:26:27.606Z,101285.53
2022-10-31T19:28:56.733Z,101287.31
2022-10-31T19:31:24.814Z,101288.88
2022-10-31T19:33:52.274Z,101282.78
2022-10-31T19:36:24.068Z,101281.13
2022-10-31T19:38:53.081Z,101277.78
2022-10-31T19:41:30.382Z,101280.16
2022-10-31T19:44:00.963Z,101273.59
2022-10-31T19:46:48.129Z,101271.56
2022-10-31T19:49:15.211Z,101276.09
2022-10-31T19:51:42.582Z,101274.09
2022-10-31T19:54:11.376Z,101272.75
2022-10-31T19:56:38.521Z,101271.91
2022-10-31T19:59:05.803Z,101264.41
2022-10-31T20:01:32.934Z,101275.97
2022-10-31T20:04:00.382Z,101266.94
2022-10-31T20:06:36.350Z,101264.75
2022-10-31T20:09:08.355Z,101265.09
2022-10-31T20:11:42.481Z,101261.63
2022-10-31T20:14:21.000Z,101250.69
2022-10-31T20:16:50.969Z,101254.25
2022-10-31T20:19:18.208Z,101243.88
2022-10-31T20:21:48.564Z,101244.59
2022-10-31T20:24:15.745Z,101256.66
2022-10-31T20:26:42.964Z,101240.63
2022-10-31T20:29:18.227Z,101235.06
2022-10-31T20:31:47.249Z,101239.56
2022-10-31T20:34:15.217Z,101237.53
2022-10-31T20:36:46.078Z,101239.00
2022-10-31T20:39:16.352Z,101241.03
2022-10-31T20:41:56.320Z,101235.16
2022-10-31T20:44:23.653Z,101237.22
2022-10-31T20:46:51.021Z,101235.28
2022-10-31T20:49:17.975Z,101239.38
2022-10-31T20:51:53.257Z,101231.97
2022-10-31T20:54:20.697Z,101228.50
2022-10-31T20:56:48.088Z,101232.22
2022-10-31T20:59:20.052Z,101231.03
2022-10-31T21:01:49.984Z,101226.25
2022-10-31T21:04:19.823Z,101227.56
2022-10-31T21:06:49.655Z,101218.88
2022-10-31T21:09:17.962Z,101225.06
2022-10-31T21:11:45.062Z,101218.88
2022-10-31T21:14:12.141Z,101212.88
2022-10-31T21:16:41.935Z,101210.38
2022-10-31T21:19:08.976Z,101201.91
2022-10-31T21:21:40.480Z,101204.06
2022-10-31T21:26:51.986Z,101201.22
2022-10-31T21:29:26.876Z,101193.78
2022-10-31T21:31:54.015Z,101190.00
2022-10-31T21:34:37.914Z,101187.72
2022-10-31T21:37:06.104Z,101192.50
2022-10-31T21:39:38.372Z,101193.94
2022-10-31T21:42:08.930Z,101185.38
2022-10-31T21:44:44.673Z,101183.06
2022-10-31T21:47:11.846Z,101178.78
2022-10-31T21:49:41.685Z,101177.63
2022-10-31T21:52:09.379Z,101175.91
2022-10-31T21:54:37.462Z,101164.50
2022-10-31T21:57:04.582Z,101163.53
2022-10-31T21:59:31.906Z,101164.72
2022-10-31T22:02:00.760Z,101158.84
2022-10-31T22:04:32.451Z,101152.78
2022-10-31T22:07:04.287Z,101152.53
2022-10-31T22:09:34.329Z,101156.09
2022-10-31T22:12:06.719Z,101148.94
2022-10-31T22:14:37.022Z,101151.56
2022-10-31T22:17:06.975Z,101141.56
2022-10-31T22:19:34.797Z,101142.16
2022-10-31T22:22:04.862Z,101147.03
2022-10-31T22:24:32.295Z,101148.84
2022-10-31T22:26:59.870Z,101144.19
2022-10-31T22:29:30.820Z,101144.91
2022-10-31T22:32:02.205Z,101143.44
2022-10-31T22:34:29.380Z,101142.50
2022-10-31T22:37:05.500Z,101142.03
2022-10-31T22:39:32.698Z,101131.78
2022-10-31T22:42:02.674Z,101146.31
2022-10-31T22:44:29.729Z,101141.78
2022-10-31T22:46:57.022Z,101130.56
2022-10-31T22:49:24.162Z,101137.72
2022-10-31T22:52:02.619Z,101135.31
2022-10-31T22:54:35.262Z,101134.59
2022-10-31T22:57:10.975Z,101141.16
2022-10-31T22:59:38.013Z,101133.63
2022-10-31T23:02:08.443Z,101121.00
2022-10-31T23:04:40.253Z,101119.69
2022-10-31T23:07:23.018Z,101121.25
2022-10-31T23:10:02.152Z,101109.53
2022-10-31T23:12:59.627Z,101104.19
2022-10-31T23:15:32.386Z,101101.94
2022-10-31T23:17:59.838Z,101091.66
2022-10-31T23:20:27.493Z,101092.84
2022-10-31T23:22:57.862Z,101087.72
2022-10-31T23:25:43.802Z,101087.72
2022-10-31T23:28:11.211Z,101090.84
2022-10-31T23:30:46.784Z,101080.47
2022-10-31T23:33:17.053Z,101087.41
2022-10-31T23:35:47.356Z,101083.31
2022-10-31T23:38:14.790Z,101084.50
2022-10-31T23:40:49.493Z,101076.38
2022-10-31T23:43:26.237Z,101075.94
2022-10-31T23:45:55.599Z,101061.81
2022-10-31T23:48:24.998Z,101052.63
2022-10-31T23:50:59.460Z,101054.09
2022-10-31T23:53:32.902Z,101057.75
2022-10-31T23:56:00.133Z,101075.31
2022-10-31T23:58:51.200Z,101062.78
